Juneau, AK

3:04 AM AKDT on August 30, 2014 (GMT -0800)
MISC Lemon Creek (Juneau), AK FAA | Change Station
CLOSE
Current Station
Personal Weather Station
Location: Juneau, AK
Elevation: 16 ft
Nearby Weather Stations

Elev 16 ft 58.36 °N, 134.51 °W | Updated 54 minutes ago

Light Rain
Light Rain
52 °F
Feels Like 52 °F
N
1
Wind Variable Wind from SE
Gusts 2.0 mph

Today
High -- | Low -- °F
--% Chance of Precip.
Yesterday
High -- | Low -- °F
Precip. -- in
5:53 AM 8:02 PM
Waxing Crescent, 21% visible
Pressure 29.60 in
Visibility 10.0 miles
Clouds Few 400 ft
Scattered Clouds 900 ft
Overcast 3400 ft
Dew Point 52 °F
Humidity 100%
Rainfall -999.00 in
Snow Depth Not available.
UV 0 out of 12
Pollen Not available.
Air Quality Not available.
Flu Activity Not available.
METAR PAJN 301053Z 09004KT 10SM -RA FEW004 SCT009 OVC034 11/10 A2959 RMK AO2 RAB50 SLP021 PCPN VRY LGT P0000 T01060100 $

More Conditions Fewer Conditions

Pressure 29.60 in
Visibility 10.0 miles
Clouds Few 400 ft
Scattered Clouds 900 ft
Overcast 3400 ft
Dew Point 52 °F
Humidity 100%
Rainfall -999.00 in
Snow Depth Not available.
UV 0 out of 12
Pollen Not available.
Air Quality Not available.
Flu Activity Not available.
METAR PAJN 301053Z 09004KT 10SM -RA FEW004 SCT009 OVC034 11/10 A2959 RMK AO2 RAB50 SLP021 PCPN VRY LGT P0000 T01060100 $

More Conditions Fewer Conditions

10-Day Weather Forecast

Almanac

Astronomy

Aug. 30, 2014 Rise Set
Actual Time 5:53 AM AKDT 8:02 PM AKDT
Civil Twilight 5:10 AM AKDT 8:45 PM AKDT
Nautical Twilight 4:14 AM AKDT 9:40 PM AKDT
Astronomical Twilight 3:05 AM AKDT 10:48 PM AKDT
Moon 12:00 PM AKDT 9:25 PM AKDT
Length of Visible Light 15h 35m
Length of Day
14h 09m
Tomorrow will be 4m 59s shorter.
Waxing Crescent, 21% of the Moon is Illuminated
Today
Waxing Crescent
Sep 2
First Quarter
Sep 8
Full
Sep 15
Last Quarter
Sep 24
New

Today's Extremes

State Highs State Lows

Community

WunderPhotos

Upload Photos

1,748,481 photos uploaded!

WunderBlogs® & News

By Dr. Jeff Masters
Director of Meteorology, Weather Underground
By Kari Strenfel
Meteorologist, Weather Underground
By Christopher C. Burt
Weather Historian, Weather Underground
August 30, 2014
August 29, 2014
August 29, 2014

Nearby

Snow Depth

Station Depth Elevation
Long Lake 0 in 820 ft
Upper Tsaina River 0 in 1750 ft
Moraine 0 in 2100 ft
Granite Creek 0 in 1240 ft
Grandview 0 in 1100 ft

Earthquake Activity

City Distance Mag. Time & Date
No recent earthquake activity has been reported nearby.
Minimum magnitude displayed is 2.5.

Coastal Water Temperatures

Place Temperature
No Stations Reporting

Nearby Weather Stations